createdAt,value
2022-10-15T00:01:09.890Z,9.20
2022-10-15T00:02:12.476Z,7.20
2022-10-15T00:03:22.751Z,7.93
2022-10-15T00:04:25.222Z,7.95
2022-10-15T00:05:35.637Z,7.90
2022-10-15T00:06:39.073Z,7.95
2022-10-15T00:07:41.642Z,6.40
2022-10-15T00:08:51.637Z,7.00
2022-10-15T00:09:54.158Z,7.00
2022-10-15T00:11:10.645Z,8.93
2022-10-15T00:12:14.054Z,9.07
2022-10-15T00:13:16.573Z,7.15
2022-10-15T00:14:20.496Z,6.80
2022-10-15T00:15:29.642Z,6.55
2022-10-15T00:16:34.513Z,6.72
2022-10-15T00:17:37.451Z,8.43
2022-10-15T00:18:41.250Z,7.10
2022-10-15T00:19:43.819Z,7.45
2022-10-15T00:20:53.683Z,5.03
2022-10-15T00:22:17.646Z,7.07
2022-10-15T00:23:20.127Z,5.43
2022-10-15T00:24:23.577Z,5.40
2022-10-15T00:25:26.088Z,6.00
2022-10-15T00:26:37.638Z,5.78
2022-10-15T00:27:40.215Z,3.92
2022-10-15T00:28:44.092Z,5.47
2022-10-15T00:29:46.641Z,6.13
2022-10-15T00:30:50.066Z,5.25
2022-10-15T00:32:01.644Z,5.05
2022-10-15T00:33:04.238Z,5.60
2022-10-15T00:34:07.835Z,7.30
2022-10-15T00:35:10.381Z,7.15
2022-10-15T00:36:14.610Z,5.63
2022-10-15T00:37:23.652Z,6.43
2022-10-15T00:38:27.136Z,6.28
2022-10-15T00:39:30.606Z,4.38
2022-10-15T00:40:33.209Z,7.20
2022-10-15T00:41:39.286Z,5.32
2022-10-15T00:44:35.627Z,7.25
2022-10-15T00:45:39.284Z,5.10
2022-10-15T00:46:49.659Z,6.50
2022-10-15T00:48:00.668Z,6.20
2022-10-15T00:49:05.164Z,4.35
2022-10-15T00:50:08.826Z,6.70
2022-10-15T00:51:18.685Z,6.72
2022-10-15T00:52:25.137Z,7.05
2022-10-15T00:53:28.827Z,7.55
2022-10-15T00:54:34.065Z,6.35
2022-10-15T00:55:40.162Z,7.53
2022-10-15T00:56:51.828Z,7.10
2022-10-15T00:58:01.734Z,6.80
2022-10-15T00:59:05.730Z,7.95
2022-10-15T01:00:10.729Z,7.15
2022-10-15T01:01:14.285Z,7.32
2022-10-15T01:02:25.942Z,7.88
2022-10-15T01:03:28.786Z,6.45
2022-10-15T01:04:32.647Z,6.18
2022-10-15T01:05:36.678Z,6.43
2022-10-15T01:06:39.364Z,9.40
2022-10-15T01:07:49.715Z,7.15
2022-10-15T01:08:53.793Z,7.55
2022-10-15T01:09:56.377Z,6.68
2022-10-15T01:11:04.601Z,7.63
2022-10-15T01:12:12.865Z,6.78
2022-10-15T01:13:23.798Z,5.78
2022-10-15T01:14:31.295Z,6.07
2022-10-15T01:15:38.085Z,5.60
2022-10-15T01:16:45.363Z,7.00
2022-10-15T01:17:49.898Z,5.70
2022-10-15T01:19:01.672Z,6.50
2022-10-15T01:20:18.181Z,7.35
2022-10-15T01:21:24.212Z,7.38
2022-10-15T01:22:31.972Z,7.30
2022-10-15T01:23:58.704Z,5.25
2022-10-15T01:25:05.774Z,5.65
2022-10-15T01:26:14.195Z,4.55
2022-10-15T01:27:24.233Z,5.65
2022-10-15T01:28:35.786Z,7.80
2022-10-15T01:29:56.656Z,7.00
2022-10-15T01:31:09.682Z,7.63
2022-10-15T01:32:14.827Z,7.47
2022-10-15T01:33:24.741Z,6.30
2022-10-15T01:34:30.847Z,6.43
2022-10-15T01:35:38.055Z,6.95
2022-10-15T01:36:51.666Z,4.63
2022-10-15T01:37:56.928Z,4.35
2022-10-15T01:39:09.677Z,6.35
2022-10-15T01:40:15.975Z,5.38
2022-10-15T01:41:22.747Z,6.65
2022-10-15T01:42:28.400Z,5.47
2022-10-15T01:43:34.478Z,7.07
2022-10-15T01:44:53.679Z,7.25
2022-10-15T01:46:04.664Z,5.63
2022-10-15T01:47:11.897Z,6.05
2022-10-15T01:48:14.499Z,6.40
2022-10-15T01:49:21.336Z,6.30
2022-10-15T01:50:31.657Z,6.38
2022-10-15T01:51:36.487Z,6.13
2022-10-15T01:52:40.509Z,6.35
2022-10-15T01:53:44.829Z,7.53
2022-10-15T01:54:48.387Z,7.03
2022-10-15T01:55:58.717Z,7.32
2022-10-15T01:57:02.752Z,6.93
2022-10-15T01:58:06.139Z,5.70
2022-10-15T01:59:10.667Z,7.40
2022-10-15T02:00:13.438Z,7.00
2022-10-15T02:01:23.743Z,7.28
2022-10-15T02:02:27.640Z,7.53
2022-10-15T02:03:31.111Z,7.05
2022-10-15T02:04:33.942Z,5.85
2022-10-15T02:05:46.681Z,6.55
2022-10-15T02:06:57.715Z,5.43
2022-10-15T02:08:06.162Z,7.22
2022-10-15T02:09:12.178Z,6.90
2022-10-15T02:10:19.432Z,7.18
2022-10-15T02:11:22.026Z,6.38
2022-10-15T02:12:39.824Z,6.55
2022-10-15T02:13:47.975Z,6.30
2022-10-15T02:14:55.240Z,6.80
2022-10-15T02:16:02.890Z,7.63
2022-10-15T02:17:08.859Z,7.45
2022-10-15T02:18:22.686Z,5.70
2022-10-15T02:19:35.671Z,7.20
2022-10-15T02:20:42.273Z,6.85
2022-10-15T02:21:47.492Z,6.13
2022-10-15T02:22:53.728Z,7.80
2022-10-15T02:24:06.677Z,7.00
2022-10-15T02:25:12.075Z,5.88
2022-10-15T02:26:15.790Z,7.18
2022-10-15T02:27:20.394Z,5.82
2022-10-15T02:28:25.843Z,7.30
2022-10-15T02:29:37.712Z,6.35
2022-10-15T02:30:42.645Z,5.72
2022-10-15T02:31:46.336Z,6.95
2022-10-15T02:32:52.020Z,5.68
2022-10-15T02:33:57.677Z,6.07
2022-10-15T02:35:08.659Z,6.50
2022-10-15T02:36:11.346Z,8.15
2022-10-15T02:37:15.309Z,6.47
2022-10-15T02:38:20.408Z,6.95
2022-10-15T02:39:31.721Z,7.00
2022-10-15T02:40:35.404Z,7.07
2022-10-15T02:41:45.678Z,7.25
2022-10-15T02:42:48.244Z,5.53
2022-10-15T02:43:58.911Z,6.78
2022-10-15T02:45:14.704Z,6.28
2022-10-15T02:46:25.669Z,5.97
2022-10-15T02:47:28.231Z,8.68
2022-10-15T02:48:31.709Z,7.60
2022-10-15T02:49:35.590Z,4.95
2022-10-15T02:50:39.068Z,7.43
2022-10-15T02:51:47.689Z,6.63
2022-10-15T02:52:51.195Z,5.88
2022-10-15T02:53:53.707Z,7.63
2022-10-15T02:54:57.203Z,6.03
2022-10-15T02:55:59.743Z,0.10
2022-10-15T02:57:09.749Z,6.22
2022-10-15T02:58:12.303Z,6.05
2022-10-15T02:59:15.841Z,7.55
2022-10-15T03:00:18.662Z,6.93
2022-10-15T03:01:22.338Z,8.75
2022-10-15T03:02:31.700Z,6.93
2022-10-15T03:03:35.267Z,7.28
2022-10-15T03:04:39.549Z,7.85
2022-10-15T03:05:43.919Z,6.45
2022-10-15T03:06:46.475Z,6.78
2022-10-15T03:07:56.680Z,6.20
2022-10-15T03:08:59.550Z,7.05
2022-10-15T03:10:03.005Z,6.15
2022-10-15T03:11:05.595Z,8.38
2022-10-15T03:12:09.425Z,7.22
2022-10-15T03:13:18.707Z,6.45
2022-10-15T03:14:22.208Z,7.25
2022-10-15T03:15:24.735Z,8.90
2022-10-15T03:16:28.258Z,8.23
2022-10-15T03:17:30.779Z,7.75
2022-10-15T03:18:41.039Z,7.50
2022-10-15T03:19:45.099Z,7.25
2022-10-15T03:20:54.871Z,7.40
2022-10-15T03:21:58.399Z,6.75
2022-10-15T03:23:01.092Z,7.00
2022-10-15T03:24:10.719Z,9.20
2022-10-15T03:25:13.353Z,6.82
2022-10-15T03:26:16.832Z,6.82
2022-10-15T03:27:19.392Z,8.27
2022-10-15T03:28:23.142Z,5.80
2022-10-15T03:29:32.739Z,8.43
2022-10-15T03:30:36.244Z,7.68
2022-10-15T03:31:38.995Z,7.65
2022-10-15T03:33:45.991Z,8.43
2022-10-15T03:34:57.793Z,6.60
2022-10-15T03:36:00.391Z,7.47
2022-10-15T03:37:03.909Z,8.55
2022-10-15T03:38:12.706Z,7.63
2022-10-15T03:39:16.263Z,6.25
2022-10-15T03:40:19.366Z,7.05
2022-10-15T03:41:22.901Z,6.00
2022-10-15T03:42:25.780Z,7.95
2022-10-15T03:43:38.755Z,8.48
2022-10-15T03:44:50.931Z,8.05
2022-10-15T03:46:03.389Z,6.22
2022-10-15T03:47:06.017Z,7.65
2022-10-15T03:48:15.700Z,7.70
2022-10-15T03:49:18.311Z,7.30
2022-10-15T03:50:23.151Z,5.82
2022-10-15T03:51:27.938Z,7.45
2022-10-15T03:52:39.692Z,8.82
2022-10-15T03:53:42.178Z,7.30
2022-10-15T03:54:45.649Z,9.45
2022-10-15T03:55:48.188Z,8.00
2022-10-15T03:56:51.641Z,8.57
2022-10-15T03:58:00.775Z,9.45
2022-10-15T03:59:04.414Z,7.80
2022-10-15T04:00:08.156Z,7.35
2022-10-15T04:01:11.780Z,5.88
2022-10-15T04:02:14.464Z,8.55
2022-10-15T04:03:24.767Z,7.45
2022-10-15T04:04:27.302Z,6.57
2022-10-15T04:05:32.078Z,7.20
2022-10-15T04:06:34.673Z,7.80
2022-10-15T04:07:38.226Z,6.45
2022-10-15T04:08:47.842Z,7.80
2022-10-15T04:09:51.436Z,7.88
2022-10-15T04:10:54.415Z,6.93
2022-10-15T04:11:57.876Z,7.32
2022-10-15T04:13:00.383Z,6.40
2022-10-15T04:14:10.757Z,7.75
2022-10-15T04:15:14.254Z,8.43
2022-10-15T04:16:16.809Z,5.95
2022-10-15T04:17:20.271Z,6.85
2022-10-15T04:18:23.035Z,7.80
2022-10-15T04:19:32.726Z,8.05
2022-10-15T04:20:36.579Z,8.70
2022-10-15T04:21:40.078Z,6.68
2022-10-15T04:22:42.877Z,6.90
2022-10-15T04:23:46.381Z,10.27
2022-10-15T04:24:55.735Z,7.25
2022-10-15T04:26:01.342Z,5.97
2022-10-15T04:27:03.960Z,8.85
2022-10-15T04:28:07.580Z,7.57
2022-10-15T04:29:10.341Z,7.10
2022-10-15T04:30:20.807Z,7.07
2022-10-15T04:31:24.261Z,8.90
2022-10-15T04:32:26.797Z,7.75
2022-10-15T04:33:30.315Z,9.82
2022-10-15T04:34:32.998Z,9.50
2022-10-15T04:35:44.731Z,10.00
2022-10-15T04:36:53.772Z,7.10
2022-10-15T04:37:59.606Z,7.10
2022-10-15T04:39:02.400Z,7.93
2022-10-15T04:40:06.482Z,8.15
2022-10-15T04:41:11.346Z,7.25
2022-10-15T04:42:21.739Z,7.75
2022-10-15T04:43:24.300Z,8.60
2022-10-15T04:44:33.869Z,9.80
2022-10-15T04:45:36.414Z,8.10
2022-10-15T04:46:46.735Z,8.18
2022-10-15T04:47:55.735Z,10.25
2022-10-15T04:48:59.277Z,8.60
2022-10-15T04:50:01.800Z,10.85
2022-10-15T04:51:14.709Z,9.40
2022-10-15T04:52:23.701Z,9.20
2022-10-15T04:53:27.161Z,7.25
2022-10-15T04:54:29.781Z,9.75
2022-10-15T04:55:33.259Z,6.22
2022-10-15T04:56:42.736Z,8.77
2022-10-15T04:57:46.177Z,7.03
2022-10-15T04:58:49.414Z,8.98
2022-10-15T04:59:56.854Z,9.00
2022-10-15T05:01:07.771Z,7.88
2022-10-15T05:02:11.490Z,8.68
2022-10-15T05:03:14.197Z,9.68
2022-10-15T05:04:17.678Z,8.93
2022-10-15T05:05:20.235Z,9.20
2022-10-15T05:06:31.751Z,12.70
2022-10-15T05:07:34.315Z,12.27
2022-10-15T05:08:44.722Z,11.02
2022-10-15T05:09:47.261Z,10.18
2022-10-15T05:10:50.740Z,12.07
2022-10-15T05:12:02.747Z,10.93
2022-10-15T05:13:05.293Z,9.85
2022-10-15T05:14:08.778Z,8.68
2022-10-15T05:15:11.414Z,9.55
2022-10-15T05:16:15.998Z,8.65
2022-10-15T05:17:25.146Z,8.30
2022-10-15T05:18:35.816Z,8.68
2022-10-15T05:19:38.365Z,8.73
2022-10-15T05:20:42.020Z,10.18
2022-10-15T05:21:46.514Z,9.05
2022-10-15T05:22:56.769Z,9.43
2022-10-15T05:23:59.798Z,7.90
2022-10-15T05:25:03.274Z,7.53
2022-10-15T05:26:06.751Z,9.15
2022-10-15T05:27:10.222Z,7.28
2022-10-15T05:28:19.768Z,9.32
2022-10-15T05:29:29.725Z,8.63
2022-10-15T05:30:33.121Z,10.85
2022-10-15T05:31:36.657Z,8.30
2022-10-15T05:32:39.227Z,11.20
2022-10-15T05:33:43.010Z,10.80
2022-10-15T05:34:51.755Z,11.10
2022-10-15T05:35:55.247Z,9.93
2022-10-15T05:36:59.142Z,7.85
2022-10-15T05:38:02.692Z,8.60
2022-10-15T05:39:10.415Z,8.40
2022-10-15T05:40:22.064Z,10.40
2022-10-15T05:41:25.696Z,8.98
2022-10-15T05:42:29.163Z,7.28
2022-10-15T05:43:31.695Z,7.75
2022-10-15T05:44:48.760Z,10.82
2022-10-15T05:46:01.142Z,8.30
2022-10-15T05:47:04.615Z,9.35
2022-10-15T05:48:07.374Z,8.18
2022-10-15T05:49:10.876Z,10.77
2022-10-15T05:50:19.723Z,10.68
2022-10-15T05:51:23.629Z,9.32
2022-10-15T05:52:27.576Z,10.88
2022-10-15T05:53:31.237Z,10.73
2022-10-15T05:54:40.737Z,10.70
2022-10-15T05:55:44.349Z,8.90
2022-10-15T05:56:46.971Z,10.27
2022-10-15T05:57:50.423Z,9.65
2022-10-15T05:58:53.020Z,9.27
2022-10-15T06:00:02.799Z,11.55
2022-10-15T06:01:07.788Z,10.15
2022-10-15T06:02:10.637Z,12.73
2022-10-15T06:03:15.401Z,11.52
2022-10-15T06:04:19.413Z,9.43
2022-10-15T06:05:28.749Z,8.23
2022-10-15T06:06:32.283Z,12.38
2022-10-15T06:07:36.899Z,10.77
2022-10-15T06:08:40.429Z,11.30
2022-10-15T06:09:49.783Z,10.50
2022-10-15T06:10:53.348Z,9.50
2022-10-15T06:11:55.878Z,9.95
2022-10-15T06:12:59.459Z,11.10
2022-10-15T06:14:02.016Z,9.23
2022-10-15T06:15:11.733Z,10.43
2022-10-15T06:16:23.897Z,11.02
2022-10-15T06:17:27.756Z,9.32
2022-10-15T06:18:30.384Z,9.93
2022-10-15T06:19:33.938Z,12.23
2022-10-15T06:20:43.780Z,11.05
2022-10-15T06:21:47.248Z,10.23
2022-10-15T06:22:51.205Z,9.80
2022-10-15T06:23:54.795Z,11.02
2022-10-15T06:24:57.425Z,10.75
2022-10-15T06:26:10.759Z,10.40
2022-10-15T06:27:14.234Z,9.50
2022-10-15T06:28:17.185Z,10.77
2022-10-15T06:29:20.756Z,11.40
2022-10-15T06:30:23.393Z,9.82
2022-10-15T06:31:33.767Z,10.93
2022-10-15T06:32:36.300Z,9.55
2022-10-15T06:33:40.042Z,8.57
2022-10-15T06:34:42.757Z,9.90
2022-10-15T06:35:46.269Z,10.10
2022-10-15T06:36:55.759Z,8.82
2022-10-15T06:38:03.181Z,9.73
2022-10-15T06:39:05.981Z,12.70
2022-10-15T06:40:10.241Z,9.43
2022-10-15T06:41:12.843Z,10.77
2022-10-15T06:42:22.737Z,13.32
2022-10-15T06:43:28.730Z,11.90
2022-10-15T06:44:54.743Z,7.43
2022-10-15T06:45:59.476Z,10.55
2022-10-15T06:47:17.919Z,8.95
2022-10-15T06:48:20.524Z,9.10
2022-10-15T06:49:24.065Z,10.43
2022-10-15T06:50:26.749Z,10.43
2022-10-15T06:51:30.426Z,10.52
2022-10-15T06:52:39.745Z,9.20
2022-10-15T06:53:44.574Z,11.35
2022-10-15T06:54:53.779Z,10.45
2022-10-15T06:55:59.227Z,10.27
2022-10-15T06:57:01.775Z,11.90
2022-10-15T06:58:05.228Z,12.27
2022-10-15T06:59:07.815Z,8.38
2022-10-15T07:00:17.736Z,11.55
2022-10-15T07:01:21.212Z,9.57
2022-10-15T07:02:25.109Z,11.43
2022-10-15T07:03:29.276Z,8.82
2022-10-15T07:04:31.816Z,10.80
2022-10-15T07:05:42.759Z,10.48
2022-10-15T07:06:46.239Z,10.85
2022-10-15T07:07:52.762Z,12.10
2022-10-15T07:08:58.345Z,12.80
2022-10-15T07:10:07.808Z,11.52
2022-10-15T07:11:11.515Z,10.50
2022-10-15T07:12:14.170Z,10.25
2022-10-15T07:13:17.639Z,13.43
2022-10-15T07:14:23.240Z,10.50
2022-10-15T07:15:32.759Z,9.07
2022-10-15T07:16:35.675Z,9.48
2022-10-15T07:17:39.853Z,10.98
2022-10-15T07:18:42.438Z,9.45
2022-10-15T07:19:45.986Z,9.30
2022-10-15T07:20:54.744Z,12.43
2022-10-15T07:22:04.849Z,11.57
2022-10-15T07:23:07.430Z,8.82
2022-10-15T07:24:12.319Z,12.63
2022-10-15T07:25:14.907Z,10.40
2022-10-15T07:26:18.412Z,11.38
2022-10-15T07:27:27.755Z,10.40
2022-10-15T07:28:31.324Z,9.82
2022-10-15T07:29:33.980Z,10.48
2022-10-15T07:30:37.470Z,10.32
2022-10-15T07:31:40.114Z,12.70
2022-10-15T07:32:50.321Z,11.20
2022-10-15T07:33:52.936Z,10.40
2022-10-15T07:34:56.423Z,8.27
2022-10-15T07:35:58.982Z,8.65
2022-10-15T07:37:02.502Z,12.43
2022-10-15T07:38:14.770Z,10.02
2022-10-15T07:39:19.738Z,9.73
2022-10-15T07:40:22.460Z,10.88
2022-10-15T07:41:26.098Z,9.93
2022-10-15T07:42:28.690Z,11.80
2022-10-15T07:43:38.775Z,11.02
2022-10-15T07:45:01.807Z,8.23
2022-10-15T07:46:05.603Z,9.52
2022-10-15T07:47:08.492Z,9.65
2022-10-15T07:48:19.111Z,8.98
2022-10-15T07:49:21.628Z,9.50
2022-10-15T07:50:26.442Z,9.30
2022-10-15T07:51:30.752Z,8.35
2022-10-15T07:52:34.248Z,8.70
2022-10-15T07:53:43.808Z,9.82
2022-10-15T07:54:48.662Z,9.77
2022-10-15T07:55:51.233Z,9.25
2022-10-15T07:56:54.682Z,7.82
2022-10-15T07:57:58.292Z,9.07
2022-10-15T07:59:08.800Z,9.95
2022-10-15T08:00:12.637Z,7.82
2022-10-15T08:01:15.272Z,7.78
2022-10-15T08:02:19.485Z,10.27
2022-10-15T08:03:22.021Z,6.88
2022-10-15T08:04:31.775Z,9.90
2022-10-15T08:05:34.609Z,9.55
2022-10-15T08:06:38.092Z,8.68
2022-10-15T08:07:42.029Z,9.05
2022-10-15T08:08:45.604Z,8.68
2022-10-15T08:09:55.793Z,9.77
2022-10-15T08:10:59.350Z,9.95
2022-10-15T08:12:02.172Z,9.52
2022-10-15T08:13:05.742Z,9.20
2022-10-15T08:14:08.327Z,8.70
2022-10-15T08:15:18.782Z,7.78
2022-10-15T08:16:22.356Z,8.88
2022-10-15T08:17:24.904Z,8.40
2022-10-15T08:18:28.403Z,8.40
2022-10-15T08:19:31.062Z,8.23
2022-10-15T08:20:40.776Z,8.50
2022-10-15T08:21:47.340Z,8.68
2022-10-15T08:22:50.233Z,8.52
2022-10-15T08:23:53.700Z,10.70
2022-10-15T08:24:57.580Z,7.70
2022-10-15T08:26:07.788Z,8.73
2022-10-15T08:27:10.320Z,7.72
2022-10-15T08:28:20.923Z,9.10
2022-10-15T08:29:24.461Z,10.25
2022-10-15T08:30:27.027Z,8.70
2022-10-15T08:31:31.721Z,10.65
2022-10-15T08:32:34.289Z,9.73
2022-10-15T08:33:44.771Z,7.90
2022-10-15T08:34:47.327Z,8.35
2022-10-15T08:35:50.836Z,8.48
2022-10-15T08:36:53.411Z,8.30
2022-10-15T08:37:56.923Z,9.32
2022-10-15T08:39:05.814Z,9.45
2022-10-15T08:40:11.686Z,8.82
2022-10-15T08:41:20.781Z,8.82
2022-10-15T08:42:27.870Z,7.95
2022-10-15T08:43:34.474Z,8.02
2022-10-15T08:44:47.772Z,9.75
2022-10-15T08:46:05.045Z,9.95
2022-10-15T08:47:10.216Z,10.98
2022-10-15T08:48:14.210Z,9.73
2022-10-15T08:49:33.779Z,8.33
2022-10-15T08:50:40.050Z,11.18
2022-10-15T08:51:47.369Z,11.80
2022-10-15T08:52:52.291Z,9.10
2022-10-15T08:54:02.798Z,8.70
2022-10-15T08:55:12.836Z,7.82
2022-10-15T08:56:19.919Z,12.27
2022-10-15T08:57:29.592Z,10.50
2022-10-15T08:58:40.476Z,9.02
2022-10-15T08:59:56.070Z,7.80
2022-10-15T09:01:01.671Z,9.10
2022-10-15T09:02:09.703Z,7.20
2022-10-15T09:03:19.551Z,9.60
2022-10-15T09:05:40.770Z,9.73
2022-10-15T09:06:49.755Z,9.13
2022-10-15T09:07:56.347Z,10.73
2022-10-15T09:09:04.471Z,8.95
2022-10-15T09:10:12.479Z,7.82
2022-10-15T09:11:18.802Z,8.13
2022-10-15T09:12:40.719Z,10.23
2022-10-15T09:13:45.973Z,9.80
2022-10-15T09:14:49.118Z,10.02
2022-10-15T09:16:00.871Z,8.23
2022-10-15T09:17:13.871Z,11.18
2022-10-15T09:18:19.691Z,10.37
2022-10-15T09:19:30.747Z,7.53
2022-10-15T09:20:34.344Z,10.88
2022-10-15T09:21:38.048Z,7.82
2022-10-15T09:22:40.719Z,9.03
2022-10-15T09:23:54.080Z,8.90
2022-10-15T09:24:56.930Z,8.13
2022-10-15T09:26:02.739Z,8.57
2022-10-15T09:27:08.478Z,7.47
2022-10-15T09:28:16.590Z,7.97
2022-10-15T09:29:30.822Z,8.87
2022-10-15T09:30:36.349Z,8.63
2022-10-15T09:31:41.789Z,7.60
2022-10-15T09:32:50.594Z,7.63
2022-10-15T09:34:00.374Z,8.27
2022-10-15T09:35:18.794Z,8.73
2022-10-15T09:36:29.051Z,7.73
2022-10-15T09:37:40.779Z,9.03
2022-10-15T09:38:55.770Z,7.77
2022-10-15T09:40:06.393Z,7.87
2022-10-15T09:41:16.714Z,8.70
2022-10-15T09:42:25.399Z,8.53
2022-10-15T09:43:41.780Z,9.13
2022-10-15T09:44:53.798Z,7.70
2022-10-15T09:46:09.783Z,8.50
2022-10-15T09:47:17.919Z,8.57
2022-10-15T09:48:21.719Z,8.63
2022-10-15T09:49:36.288Z,8.67
2022-10-15T09:50:43.090Z,7.50
2022-10-15T09:51:56.811Z,7.73
2022-10-15T09:53:05.530Z,7.57
2022-10-15T09:54:12.293Z,8.47
2022-10-15T09:55:21.609Z,8.13
2022-10-15T09:56:31.793Z,8.30
2022-10-15T09:57:36.913Z,7.63
2022-10-15T09:58:52.250Z,6.93
2022-10-15T09:59:56.018Z,7.20
2022-10-15T10:01:08.797Z,7.37
2022-10-15T10:02:20.531Z,7.57
2022-10-15T10:03:24.088Z,7.13
2022-10-15T10:04:35.788Z,6.67
2022-10-15T10:05:40.075Z,6.73
2022-10-15T10:06:46.769Z,6.93
2022-10-15T10:07:50.262Z,7.93
2022-10-15T10:08:54.933Z,7.60
2022-10-15T10:10:04.821Z,8.07
2022-10-15T10:11:09.538Z,7.67
2022-10-15T10:12:19.841Z,7.37
2022-10-15T10:13:25.409Z,8.37
2022-10-15T10:14:31.792Z,7.90
2022-10-15T10:15:41.814Z,7.93
2022-10-15T10:17:00.145Z,6.87
2022-10-15T10:18:05.544Z,7.13
2022-10-15T10:19:14.493Z,6.23
2022-10-15T10:20:24.815Z,7.63
2022-10-15T10:21:32.118Z,6.00
2022-10-15T10:22:45.557Z,6.53
2022-10-15T10:23:57.775Z,6.57
2022-10-15T10:25:00.299Z,5.67
2022-10-15T10:26:05.022Z,6.63
2022-10-15T10:27:17.648Z,6.33
2022-10-15T10:28:22.243Z,6.27
2022-10-15T10:29:34.534Z,6.90
2022-10-15T10:30:42.754Z,6.10
2022-10-15T10:31:45.315Z,6.37
2022-10-15T10:32:55.805Z,5.73
2022-10-15T10:34:02.451Z,5.70
2022-10-15T10:35:05.321Z,6.17
2022-10-15T10:37:19.803Z,6.17
2022-10-15T10:38:24.207Z,7.77
2022-10-15T10:39:28.237Z,7.03
2022-10-15T10:40:32.451Z,7.43
2022-10-15T10:41:51.984Z,7.17
2022-10-15T10:43:18.789Z,6.50
2022-10-15T10:44:28.880Z,6.17
2022-10-15T10:45:39.006Z,6.47
2022-10-15T10:46:43.881Z,6.53
2022-10-15T10:47:52.798Z,6.47
2022-10-15T10:48:56.367Z,8.13
2022-10-15T10:49:59.739Z,8.13
2022-10-15T10:51:09.337Z,7.93
2022-10-15T10:52:29.823Z,9.52
2022-10-15T10:53:33.321Z,10.95
2022-10-15T10:54:36.331Z,7.85
2022-10-15T10:55:41.321Z,13.80
2022-10-15T10:56:52.810Z,8.45
2022-10-15T10:58:03.834Z,8.82
2022-10-15T10:59:12.357Z,7.47
2022-10-15T11:00:17.490Z,7.30
2022-10-15T11:01:20.121Z,7.15
2022-10-15T11:02:25.244Z,8.10
2022-10-15T11:03:37.787Z,8.80
2022-10-15T11:04:41.941Z,7.63
2022-10-15T11:05:44.482Z,7.70
2022-10-15T11:06:57.929Z,7.78
2022-10-15T11:08:12.814Z,6.70
2022-10-15T11:09:30.816Z,9.27
2022-10-15T11:10:37.292Z,7.32
2022-10-15T11:11:44.276Z,7.05
2022-10-15T11:12:58.484Z,7.60
2022-10-15T11:14:12.805Z,7.70
2022-10-15T11:15:22.600Z,10.13
2022-10-15T11:16:31.408Z,8.95
2022-10-15T11:17:44.480Z,8.07
2022-10-15T11:19:06.297Z,8.35
2022-10-15T11:20:58.435Z,7.60
2022-10-15T11:22:22.389Z,6.93
2022-10-15T11:23:39.826Z,7.43
2022-10-15T11:25:06.123Z,6.32
2022-10-15T11:26:16.272Z,7.53
2022-10-15T11:27:30.233Z,7.50
2022-10-15T11:28:41.730Z,8.10
2022-10-15T11:29:51.166Z,9.00
2022-10-15T11:31:06.827Z,7.30
2022-10-15T11:32:16.714Z,6.60
2022-10-15T11:33:29.413Z,7.78
2022-10-15T11:34:41.874Z,7.80
2022-10-15T11:35:54.256Z,8.15
2022-10-15T11:37:02.383Z,7.53
2022-10-15T11:38:14.441Z,6.97
2022-10-15T11:39:35.818Z,9.13
2022-10-15T11:40:45.754Z,7.40
2022-10-15T11:41:58.809Z,6.22
2022-10-15T11:43:11.820Z,7.17
2022-10-15T11:44:29.644Z,7.23
2022-10-15T11:46:07.819Z,9.27
2022-10-15T11:47:18.253Z,6.83
2022-10-15T11:48:34.824Z,7.13
2022-10-15T11:49:43.896Z,7.75
2022-10-15T11:50:50.202Z,6.65
2022-10-15T11:52:00.464Z,6.00
2022-10-15T11:53:27.816Z,6.60
2022-10-15T11:54:33.628Z,8.13
2022-10-15T11:55:38.507Z,6.87
2022-10-15T11:56:43.637Z,6.28
2022-10-15T11:57:53.840Z,6.37
2022-10-15T11:59:00.011Z,7.13
2022-10-15T12:00:03.996Z,7.87
2022-10-15T12:01:11.289Z,6.93
2022-10-15T12:02:15.143Z,7.43
2022-10-15T12:03:26.869Z,6.67
2022-10-15T12:04:36.044Z,6.43
2022-10-15T12:05:41.659Z,7.20
2022-10-15T12:06:46.199Z,6.93
2022-10-15T12:07:50.298Z,7.10
2022-10-15T12:08:59.852Z,7.17
2022-10-15T12:10:07.849Z,7.30
2022-10-15T12:11:15.856Z,7.07
2022-10-15T12:12:23.965Z,6.00
2022-10-15T12:13:28.971Z,7.40
2022-10-15T12:14:42.812Z,5.93
2022-10-15T12:15:49.163Z,6.47
2022-10-15T12:16:57.728Z,7.53
2022-10-15T12:18:04.550Z,6.83
2022-10-15T12:19:14.621Z,6.87
2022-10-15T12:20:26.815Z,5.93
2022-10-15T12:21:35.220Z,6.40
2022-10-15T12:22:40.755Z,7.33
2022-10-15T12:23:43.389Z,6.77
2022-10-15T12:24:59.178Z,7.23
2022-10-15T12:26:07.870Z,6.73
2022-10-15T12:27:17.913Z,6.50
2022-10-15T12:28:23.043Z,6.27
2022-10-15T12:29:27.962Z,5.97
2022-10-15T12:30:34.516Z,6.10
2022-10-15T12:31:56.823Z,6.63
2022-10-15T12:33:00.335Z,4.33
2022-10-15T12:34:02.896Z,6.27
2022-10-15T12:35:08.359Z,5.57
2022-10-15T12:36:31.854Z,7.40
2022-10-15T12:37:37.072Z,6.97
2022-10-15T12:38:41.056Z,5.87
2022-10-15T12:39:52.545Z,6.27
2022-10-15T12:41:06.878Z,5.60
2022-10-15T12:42:20.128Z,6.23
2022-10-15T12:43:22.804Z,6.50
2022-10-15T12:44:27.809Z,7.20
2022-10-15T12:45:51.815Z,5.67
2022-10-15T12:47:01.810Z,6.17
2022-10-15T12:48:29.878Z,6.87
2022-10-15T12:49:48.650Z,6.00
2022-10-15T12:50:51.269Z,5.13
2022-10-15T12:51:59.828Z,4.43
2022-10-15T12:53:03.261Z,5.63
2022-10-15T12:54:27.838Z,5.77
2022-10-15T12:55:35.597Z,5.03
2022-10-15T12:56:40.212Z,6.30
2022-10-15T12:58:10.719Z,5.57
2022-10-15T12:59:36.842Z,5.27
2022-10-15T13:00:44.767Z,4.27
2022-10-15T13:01:56.357Z,4.33
2022-10-15T13:03:09.406Z,5.03
2022-10-15T13:04:19.832Z,4.30
2022-10-15T13:05:26.501Z,4.70
2022-10-15T13:06:34.954Z,5.30
2022-10-15T13:07:41.064Z,4.40
2022-10-15T13:08:46.032Z,5.00
2022-10-15T13:09:56.845Z,5.40
2022-10-15T13:11:01.532Z,5.10
2022-10-15T13:12:05.589Z,4.83
2022-10-15T13:13:12.937Z,5.37
2022-10-15T13:14:20.708Z,4.70
2022-10-15T13:15:31.856Z,4.73
2022-10-15T13:16:35.413Z,5.37
2022-10-15T13:17:39.527Z,4.67
2022-10-15T13:18:43.664Z,4.93
2022-10-15T13:19:55.823Z,4.43
2022-10-15T13:20:59.638Z,6.20
2022-10-15T13:22:03.131Z,4.57
2022-10-15T13:23:29.033Z,5.80
2022-10-15T13:24:41.836Z,3.83
2022-10-15T13:25:53.842Z,5.33
2022-10-15T13:26:58.425Z,5.07
2022-10-15T13:28:00.971Z,4.83
2022-10-15T13:29:05.575Z,5.20
2022-10-15T13:30:19.940Z,5.17
2022-10-15T13:31:27.566Z,5.47
2022-10-15T13:32:34.591Z,5.07
2022-10-15T13:33:40.723Z,6.00
2022-10-15T13:34:44.222Z,5.47
2022-10-15T13:35:52.822Z,5.90
2022-10-15T13:36:57.111Z,5.03
2022-10-15T13:38:00.548Z,5.83
2022-10-15T13:39:07.269Z,4.90
2022-10-15T13:40:18.305Z,5.10
2022-10-15T13:41:31.866Z,6.70
2022-10-15T13:42:35.393Z,7.70
2022-10-15T13:43:38.017Z,7.17
2022-10-15T13:44:41.688Z,6.30
2022-10-15T13:46:01.841Z,6.27
2022-10-15T13:47:04.536Z,5.23
2022-10-15T13:48:19.875Z,6.10
2022-10-15T13:49:25.319Z,5.10
2022-10-15T13:50:32.120Z,6.17
2022-10-15T13:51:37.024Z,5.57
2022-10-15T13:52:40.314Z,6.87
2022-10-15T13:53:50.866Z,7.07
2022-10-15T13:54:55.649Z,8.33
2022-10-15T13:56:05.871Z,8.37
2022-10-15T13:57:14.822Z,7.00
2022-10-15T13:58:27.583Z,7.73
2022-10-15T13:59:38.845Z,5.77
2022-10-15T14:00:41.556Z,7.70
2022-10-15T14:01:50.887Z,5.90
2022-10-15T14:03:11.862Z,5.70
2022-10-15T14:04:26.098Z,6.30
2022-10-15T14:05:28.688Z,6.60
2022-10-15T14:06:33.113Z,6.47
2022-10-15T14:07:35.662Z,7.50
2022-10-15T14:08:39.585Z,5.23
2022-10-15T14:09:48.915Z,7.43
2022-10-15T14:10:54.377Z,6.37
2022-10-15T14:12:00.699Z,5.87
2022-10-15T14:13:06.790Z,5.80
2022-10-15T14:14:25.175Z,6.53
2022-10-15T14:15:56.931Z,5.83
2022-10-15T14:17:07.889Z,7.53
2022-10-15T14:18:11.097Z,5.13
2022-10-15T14:19:21.271Z,6.37
2022-10-15T14:20:28.272Z,6.07
2022-10-15T14:21:32.669Z,6.27
2022-10-15T14:22:42.871Z,5.70
2022-10-15T14:23:47.243Z,5.50
2022-10-15T14:24:51.811Z,6.43
2022-10-15T14:25:57.632Z,5.77
2022-10-15T14:27:11.903Z,6.00
2022-10-15T14:28:20.067Z,5.60
2022-10-15T14:29:26.624Z,7.33
2022-10-15T14:30:31.588Z,6.27
2022-10-15T14:31:40.192Z,5.70
2022-10-15T14:32:52.879Z,7.93
2022-10-15T14:34:02.980Z,5.33
2022-10-15T14:35:10.064Z,6.13
2022-10-15T14:36:15.119Z,5.20
2022-10-15T14:37:52.857Z,6.77
2022-10-15T14:38:56.158Z,6.13
2022-10-15T14:40:05.334Z,5.67
2022-10-15T14:41:20.900Z,7.40
2022-10-15T14:42:35.872Z,7.03
2022-10-15T14:43:39.651Z,6.20
2022-10-15T14:44:49.851Z,5.97
2022-10-15T14:46:04.061Z,5.60
2022-10-15T14:47:25.282Z,6.13
2022-10-15T14:48:36.891Z,7.27
2022-10-15T14:49:40.820Z,7.83
2022-10-15T14:50:45.317Z,7.27
2022-10-15T14:51:53.331Z,7.47
2022-10-15T14:53:03.891Z,6.83
2022-10-15T14:54:12.901Z,6.97
2022-10-15T14:55:18.062Z,7.50
2022-10-15T14:56:23.694Z,7.03
2022-10-15T14:57:34.864Z,6.50
2022-10-15T14:58:46.941Z,6.17
2022-10-15T14:59:50.587Z,6.28